sensor_id;sensor_type;location;lat;lon;timestamp;temperature;humidity
1415;DHT22;702;49.466;11.086;2022-10-17T00:00:17;13.70;99.90
1415;DHT22;702;49.466;11.086;2022-10-17T00:02:44;13.50;99.90
1415;DHT22;702;49.466;11.086;2022-10-17T00:05:12;13.40;99.90
1415;DHT22;702;49.466;11.086;2022-10-17T00:07:39;13.40;99.90
1415;DHT22;702;49.466;11.086;2022-10-17T00:10:09;13.30;99.90
1415;DHT22;702;49.466;11.086;2022-10-17T00:12:36;13.40;99.90
1415;DHT22;702;49.466;11.086;2022-10-17T00:15:05;13.40;99.90
1415;DHT22;702;49.466;11.086;2022-10-17T00:17:34;13.40;99.90
1415;DHT22;702;49.466;11.086;2022-10-17T00:20:03;13.40;99.90
1415;DHT22;702;49.466;11.086;2022-10-17T00:22:31;13.30;99.90
1415;DHT22;702;49.466;11.086;2022-10-17T00:24:58;13.30;99.90
1415;DHT22;702;49.466;11.086;2022-10-17T00:27:27;13.30;99.90
1415;DHT22;702;49.466;11.086;2022-10-17T00:29:55;13.30;99.90
1415;DHT22;702;49.466;11.086;2022-10-17T00:32:24;13.40;99.90
1415;DHT22;702;49.466;11.086;2022-10-17T00:34:52;13.50;99.90
1415;DHT22;702;49.466;11.086;2022-10-17T00:37:19;13.60;99.90
1415;DHT22;702;49.466;11.086;2022-10-17T00:39:47;13.60;99.90
1415;DHT22;702;49.466;11.086;2022-10-17T00:42:15;13.70;99.90
1415;DHT22;702;49.466;11.086;2022-10-17T00:45:11;13.60;99.90
1415;DHT22;702;49.466;11.086;2022-10-17T00:47:42;13.60;99.90
1415;DHT22;702;49.466;11.086;2022-10-17T00:50:11;13.50;99.90
1415;DHT22;702;49.466;11.086;2022-10-17T00:52:39;13.50;99.90
1415;DHT22;702;49.466;11.086;2022-10-17T00:55:11;13.40;99.90
1415;DHT22;702;49.466;11.086;2022-10-17T00:57:41;13.50;99.90
1415;DHT22;702;49.466;11.086;2022-10-17T01:00:12;13.50;99.90
1415;DHT22;702;49.466;11.086;2022-10-17T01:02:40;13.50;99.90
1415;DHT22;702;49.466;11.086;2022-10-17T01:05:09;13.50;99.90
1415;DHT22;702;49.466;11.086;2022-10-17T01:07:37;13.50;99.90
1415;DHT22;702;49.466;11.086;2022-10-17T01:10:06;13.50;99.90
1415;DHT22;702;49.466;11.086;2022-10-17T01:12:44;13.40;99.90
1415;DHT22;702;49.466;11.086;2022-10-17T01:15:28;13.60;99.90
1415;DHT22;702;49.466;11.086;2022-10-17T01:18:11;13.70;99.90
1415;DHT22;702;49.466;11.086;2022-10-17T01:21:18;13.70;99.90
1415;DHT22;702;49.466;11.086;2022-10-17T01:24:25;13.70;99.90
1415;DHT22;702;49.466;11.086;2022-10-17T01:27:35;13.80;99.90
1415;DHT22;702;49.466;11.086;2022-10-17T01:33:16;13.80;99.90
1415;DHT22;702;49.466;11.086;2022-10-17T01:35:51;13.60;99.90
1415;DHT22;702;49.466;11.086;2022-10-17T01:38:23;13.60;99.90
1415;DHT22;702;49.466;11.086;2022-10-17T01:40:57;13.50;99.90
1415;DHT22;702;49.466;11.086;2022-10-17T01:43:32;13.40;99.90
1415;DHT22;702;49.466;11.086;2022-10-17T01:46:11;13.40;99.90
1415;DHT22;702;49.466;11.086;2022-10-17T01:48:41;13.50;99.90
1415;DHT22;702;49.466;11.086;2022-10-17T01:51:15;13.50;99.90
1415;DHT22;702;49.466;11.086;2022-10-17T01:53:49;13.40;99.90
1415;DHT22;702;49.466;11.086;2022-10-17T01:56:21;13.40;99.90
1415;DHT22;702;49.466;11.086;2022-10-17T01:58:54;13.30;99.90
1415;DHT22;702;49.466;11.086;2022-10-17T02:01:25;13.30;99.90
1415;DHT22;702;49.466;11.086;2022-10-17T02:03:57;13.20;99.90
1415;DHT22;702;49.466;11.086;2022-10-17T02:06:25;13.20;99.90
1415;DHT22;702;49.466;11.086;2022-10-17T02:08:52;13.20;99.90
1415;DHT22;702;49.466;11.086;2022-10-17T02:11:22;13.20;99.90
1415;DHT22;702;49.466;11.086;2022-10-17T02:14:12;13.30;99.90
1415;DHT22;702;49.466;11.086;2022-10-17T02:16:53;13.40;99.90
1415;DHT22;702;49.466;11.086;2022-10-17T02:19:34;13.50;99.90
1415;DHT22;702;49.466;11.086;2022-10-17T02:22:18;13.50;99.90
1415;DHT22;702;49.466;11.086;2022-10-17T02:24:56;13.50;99.90
1415;DHT22;702;49.466;11.086;2022-10-17T02:27:32;13.50;99.90
1415;DHT22;702;49.466;11.086;2022-10-17T02:30:05;13.50;99.90
1415;DHT22;702;49.466;11.086;2022-10-17T02:32:42;13.50;99.90
1415;DHT22;702;49.466;11.086;2022-10-17T02:35:15;13.40;99.90
1415;DHT22;702;49.466;11.086;2022-10-17T02:37:46;13.30;99.90
1415;DHT22;702;49.466;11.086;2022-10-17T02:40:16;13.20;99.90
1415;DHT22;702;49.466;11.086;2022-10-17T02:42:45;13.10;99.90
1415;DHT22;702;49.466;11.086;2022-10-17T02:45:13;13.10;99.90
1415;DHT22;702;49.466;11.086;2022-10-17T02:47:49;13.10;99.90
1415;DHT22;702;49.466;11.086;2022-10-17T02:50:28;13.10;99.90
1415;DHT22;702;49.466;11.086;2022-10-17T02:53:05;13.00;99.90
1415;DHT22;702;49.466;11.086;2022-10-17T02:55:40;13.00;99.90
1415;DHT22;702;49.466;11.086;2022-10-17T02:58:13;12.90;99.90
1415;DHT22;702;49.466;11.086;2022-10-17T03:00:45;12.90;99.90
1415;DHT22;702;49.466;11.086;2022-10-17T03:03:22;12.80;99.90
1415;DHT22;702;49.466;11.086;2022-10-17T03:05:52;12.80;99.90
1415;DHT22;702;49.466;11.086;2022-10-17T03:08:20;12.80;99.90
1415;DHT22;702;49.466;11.086;2022-10-17T03:10:48;12.90;99.90
1415;DHT22;702;49.466;11.086;2022-10-17T03:13:17;12.90;99.90
1415;DHT22;702;49.466;11.086;2022-10-17T03:15:48;12.90;99.90
1415;DHT22;702;49.466;11.086;2022-10-17T03:18:17;12.80;99.90
1415;DHT22;702;49.466;11.086;2022-10-17T03:20:46;12.80;99.90
1415;DHT22;702;49.466;11.086;2022-10-17T03:23:13;12.70;99.90
1415;DHT22;702;49.466;11.086;2022-10-17T03:25:41;12.70;99.90
1415;DHT22;702;49.466;11.086;2022-10-17T03:28:10;12.70;99.90
1415;DHT22;702;49.466;11.086;2022-10-17T03:30:38;12.70;99.90
1415;DHT22;702;49.466;11.086;2022-10-17T03:33:06;12.60;99.90
1415;DHT22;702;49.466;11.086;2022-10-17T03:35:33;12.60;99.90
1415;DHT22;702;49.466;11.086;2022-10-17T03:38:02;12.60;99.90
1415;DHT22;702;49.466;11.086;2022-10-17T03:40:29;12.50;99.90
1415;DHT22;702;49.466;11.086;2022-10-17T03:42:56;12.50;99.90
1415;DHT22;702;49.466;11.086;2022-10-17T03:45:24;12.40;99.90
1415;DHT22;702;49.466;11.086;2022-10-17T03:47:51;12.40;99.90
1415;DHT22;702;49.466;11.086;2022-10-17T03:50:18;12.30;99.90
1415;DHT22;702;49.466;11.086;2022-10-17T03:52:46;12.20;99.90
1415;DHT22;702;49.466;11.086;2022-10-17T03:55:15;12.20;99.90
1415;DHT22;702;49.466;11.086;2022-10-17T03:57:43;12.20;99.90
1415;DHT22;702;49.466;11.086;2022-10-17T04:00:11;12.20;99.90
1415;DHT22;702;49.466;11.086;2022-10-17T04:02:39;12.20;99.90
1415;DHT22;702;49.466;11.086;2022-10-17T04:05:10;12.20;99.90
1415;DHT22;702;49.466;11.086;2022-10-17T04:07:37;12.20;99.90
1415;DHT22;702;49.466;11.086;2022-10-17T04:10:05;12.20;99.90
1415;DHT22;702;49.466;11.086;2022-10-17T04:12:34;12.20;99.90
1415;DHT22;702;49.466;11.086;2022-10-17T04:15:02;12.20;99.90
1415;DHT22;702;49.466;11.086;2022-10-17T04:17:30;12.20;99.90
1415;DHT22;702;49.466;11.086;2022-10-17T04:19:57;12.10;99.90
1415;DHT22;702;49.466;11.086;2022-10-17T04:22:24;12.10;99.90
1415;DHT22;702;49.466;11.086;2022-10-17T04:24:52;12.10;99.90
1415;DHT22;702;49.466;11.086;2022-10-17T04:27:19;12.10;99.90
1415;DHT22;702;49.466;11.086;2022-10-17T04:29:48;12.10;99.90
1415;DHT22;702;49.466;11.086;2022-10-17T04:32:15;12.10;99.90
1415;DHT22;702;49.466;11.086;2022-10-17T04:34:43;12.20;99.90
1415;DHT22;702;49.466;11.086;2022-10-17T04:37:11;12.20;99.90
1415;DHT22;702;49.466;11.086;2022-10-17T04:39:38;12.10;99.90
1415;DHT22;702;49.466;11.086;2022-10-17T04:42:05;12.10;99.90
1415;DHT22;702;49.466;11.086;2022-10-17T04:44:33;12.10;99.90
1415;DHT22;702;49.466;11.086;2022-10-17T04:47:01;12.10;99.90
1415;DHT22;702;49.466;11.086;2022-10-17T04:49:29;12.20;99.90
1415;DHT22;702;49.466;11.086;2022-10-17T04:51:56;12.10;99.90
1415;DHT22;702;49.466;11.086;2022-10-17T04:54:23;12.10;99.90
1415;DHT22;702;49.466;11.086;2022-10-17T04:56:51;12.10;99.90
1415;DHT22;702;49.466;11.086;2022-10-17T04:59:18;12.00;99.90
1415;DHT22;702;49.466;11.086;2022-10-17T05:01:45;12.00;99.90
1415;DHT22;702;49.466;11.086;2022-10-17T05:04:16;12.00;99.90
1415;DHT22;702;49.466;11.086;2022-10-17T05:06:43;12.10;99.90
1415;DHT22;702;49.466;11.086;2022-10-17T05:09:10;12.00;99.90
1415;DHT22;702;49.466;11.086;2022-10-17T05:11:37;11.90;99.90
1415;DHT22;702;49.466;11.086;2022-10-17T05:14:05;11.90;99.90
1415;DHT22;702;49.466;11.086;2022-10-17T05:16:32;12.00;99.90
1415;DHT22;702;49.466;11.086;2022-10-17T05:19:01;12.00;99.90
1415;DHT22;702;49.466;11.086;2022-10-17T05:21:30;12.00;99.90
1415;DHT22;702;49.466;11.086;2022-10-17T05:23:57;12.00;99.90
1415;DHT22;702;49.466;11.086;2022-10-17T05:26:25;12.10;99.90
1415;DHT22;702;49.466;11.086;2022-10-17T05:28:52;12.20;99.90
1415;DHT22;702;49.466;11.086;2022-10-17T05:31:19;12.20;99.90
1415;DHT22;702;49.466;11.086;2022-10-17T05:33:47;12.20;99.90
1415;DHT22;702;49.466;11.086;2022-10-17T05:36:14;12.20;99.90
1415;DHT22;702;49.466;11.086;2022-10-17T05:38:43;12.30;99.90
1415;DHT22;702;49.466;11.086;2022-10-17T05:41:10;12.20;99.90
1415;DHT22;702;49.466;11.086;2022-10-17T05:43:37;12.20;99.90
1415;DHT22;702;49.466;11.086;2022-10-17T05:46:05;12.30;99.90
1415;DHT22;702;49.466;11.086;2022-10-17T05:48:33;12.30;99.90
1415;DHT22;702;49.466;11.086;2022-10-17T05:51:02;12.30;99.90
1415;DHT22;702;49.466;11.086;2022-10-17T05:53:31;12.20;99.90
1415;DHT22;702;49.466;11.086;2022-10-17T05:56:03;12.30;99.90
1415;DHT22;702;49.466;11.086;2022-10-17T05:58:32;12.30;99.90
1415;DHT22;702;49.466;11.086;2022-10-17T06:01:01;12.40;99.90
1415;DHT22;702;49.466;11.086;2022-10-17T06:03:30;12.40;99.90
1415;DHT22;702;49.466;11.086;2022-10-17T06:06:02;12.40;99.90
1415;DHT22;702;49.466;11.086;2022-10-17T06:08:30;12.40;99.90
1415;DHT22;702;49.466;11.086;2022-10-17T06:11:00;12.40;99.90
1415;DHT22;702;49.466;11.086;2022-10-17T06:13:28;12.40;99.90
1415;DHT22;702;49.466;11.086;2022-10-17T06:15:55;12.40;99.90
1415;DHT22;702;49.466;11.086;2022-10-17T06:18:23;12.40;99.90
1415;DHT22;702;49.466;11.086;2022-10-17T06:20:51;12.40;99.90
1415;DHT22;702;49.466;11.086;2022-10-17T06:23:18;12.40;99.90
1415;DHT22;702;49.466;11.086;2022-10-17T06:25:45;12.40;99.90
1415;DHT22;702;49.466;11.086;2022-10-17T06:28:14;12.50;99.90
1415;DHT22;702;49.466;11.086;2022-10-17T06:30:41;12.50;99.90
1415;DHT22;702;49.466;11.086;2022-10-17T06:33:08;12.60;99.90
1415;DHT22;702;49.466;11.086;2022-10-17T06:35:35;12.60;99.90
1415;DHT22;702;49.466;11.086;2022-10-17T06:38:03;12.70;99.90
1415;DHT22;702;49.466;11.086;2022-10-17T06:40:30;12.70;99.90
1415;DHT22;702;49.466;11.086;2022-10-17T06:42:57;12.80;99.90
1415;DHT22;702;49.466;11.086;2022-10-17T06:45:26;12.80;99.90
1415;DHT22;702;49.466;11.086;2022-10-17T06:47:53;12.90;99.90
1415;DHT22;702;49.466;11.086;2022-10-17T06:50:20;12.90;99.90
1415;DHT22;702;49.466;11.086;2022-10-17T06:52:49;12.90;99.90
1415;DHT22;702;49.466;11.086;2022-10-17T06:55:17;13.00;99.90
1415;DHT22;702;49.466;11.086;2022-10-17T06:57:44;13.00;99.90
1415;DHT22;702;49.466;11.086;2022-10-17T07:00:12;13.10;99.90
1415;DHT22;702;49.466;11.086;2022-10-17T07:02:42;13.10;99.90
1415;DHT22;702;49.466;11.086;2022-10-17T07:05:09;13.20;99.90
1415;DHT22;702;49.466;11.086;2022-10-17T07:07:36;13.10;99.90
1415;DHT22;702;49.466;11.086;2022-10-17T07:10:04;13.20;99.90
1415;DHT22;702;49.466;11.086;2022-10-17T07:12:33;13.20;99.90
1415;DHT22;702;49.466;11.086;2022-10-17T07:15:01;13.30;99.90
1415;DHT22;702;49.466;11.086;2022-10-17T07:17:28;13.40;99.90
1415;DHT22;702;49.466;11.086;2022-10-17T07:19:57;13.40;99.90
1415;DHT22;702;49.466;11.086;2022-10-17T07:22:24;13.40;99.90
1415;DHT22;702;49.466;11.086;2022-10-17T07:24:51;13.50;99.90
1415;DHT22;702;49.466;11.086;2022-10-17T07:27:18;13.70;99.90
1415;DHT22;702;49.466;11.086;2022-10-17T07:29:45;13.70;99.90
1415;DHT22;702;49.466;11.086;2022-10-17T07:32:13;13.80;99.90
1415;DHT22;702;49.466;11.086;2022-10-17T07:34:40;13.80;99.90
1415;DHT22;702;49.466;11.086;2022-10-17T07:37:09;13.90;99.90
1415;DHT22;702;49.466;11.086;2022-10-17T07:39:36;13.90;99.90
1415;DHT22;702;49.466;11.086;2022-10-17T07:42:04;14.00;99.90
1415;DHT22;702;49.466;11.086;2022-10-17T07:44:33;14.10;99.90
1415;DHT22;702;49.466;11.086;2022-10-17T07:47:01;14.20;99.90
1415;DHT22;702;49.466;11.086;2022-10-17T07:49:29;14.20;99.90
1415;DHT22;702;49.466;11.086;2022-10-17T07:51:56;14.40;99.90
1415;DHT22;702;49.466;11.086;2022-10-17T07:54:24;14.50;99.90
1415;DHT22;702;49.466;11.086;2022-10-17T07:56:52;14.60;99.90
1415;DHT22;702;49.466;11.086;2022-10-17T07:59:19;14.70;99.90
1415;DHT22;702;49.466;11.086;2022-10-17T08:01:46;14.80;99.90
1415;DHT22;702;49.466;11.086;2022-10-17T08:04:14;14.90;99.90
1415;DHT22;702;49.466;11.086;2022-10-17T08:06:42;15.00;99.90
1415;DHT22;702;49.466;11.086;2022-10-17T08:09:09;15.00;99.90
1415;DHT22;702;49.466;11.086;2022-10-17T08:11:37;15.20;99.90
1415;DHT22;702;49.466;11.086;2022-10-17T08:14:04;15.40;99.90
1415;DHT22;702;49.466;11.086;2022-10-17T08:16:32;15.40;99.60
1415;DHT22;702;49.466;11.086;2022-10-17T08:18:59;15.50;99.60
1415;DHT22;702;49.466;11.086;2022-10-17T08:21:26;15.60;98.70
1415;DHT22;702;49.466;11.086;2022-10-17T08:23:54;15.80;99.90
1415;DHT22;702;49.466;11.086;2022-10-17T08:26:21;16.00;97.50
1415;DHT22;702;49.466;11.086;2022-10-17T08:28:49;16.10;97.10
1415;DHT22;702;49.466;11.086;2022-10-17T08:31:18;16.20;96.90
1415;DHT22;702;49.466;11.086;2022-10-17T08:33:48;16.30;96.50
1415;DHT22;702;49.466;11.086;2022-10-17T08:36:18;16.50;96.20
1415;DHT22;702;49.466;11.086;2022-10-17T08:38:46;16.70;96.00
1415;DHT22;702;49.466;11.086;2022-10-17T08:41:19;16.90;94.80
1415;DHT22;702;49.466;11.086;2022-10-17T08:44:10;17.10;94.30
1415;DHT22;702;49.466;11.086;2022-10-17T08:46:44;17.30;93.40
1415;DHT22;702;49.466;11.086;2022-10-17T08:49:20;17.50;93.30
1415;DHT22;702;49.466;11.086;2022-10-17T08:51:55;17.60;93.20
1415;DHT22;702;49.466;11.086;2022-10-17T08:54:29;17.80;92.80
1415;DHT22;702;49.466;11.086;2022-10-17T08:56:59;17.90;92.70
1415;DHT22;702;49.466;11.086;2022-10-17T08:59:29;18.00;92.60
1415;DHT22;702;49.466;11.086;2022-10-17T09:02:02;18.10;92.60
1415;DHT22;702;49.466;11.086;2022-10-17T09:04:47;18.20;92.00
1415;DHT22;702;49.466;11.086;2022-10-17T09:07:28;18.40;91.40
1415;DHT22;702;49.466;11.086;2022-10-17T09:10:03;18.50;91.20
1415;DHT22;702;49.466;11.086;2022-10-17T09:12:52;18.50;91.00
1415;DHT22;702;49.466;11.086;2022-10-17T09:15:41;18.70;91.10
1415;DHT22;702;49.466;11.086;2022-10-17T09:18:18;18.70;90.80
1415;DHT22;702;49.466;11.086;2022-10-17T09:20:51;18.90;90.70
1415;DHT22;702;49.466;11.086;2022-10-17T09:23:23;18.90;90.60
1415;DHT22;702;49.466;11.086;2022-10-17T09:25:53;19.00;90.30
1415;DHT22;702;49.466;11.086;2022-10-17T09:28:26;19.10;90.30
1415;DHT22;702;49.466;11.086;2022-10-17T09:31:00;19.20;89.90
1415;DHT22;702;49.466;11.086;2022-10-17T09:33:34;19.40;90.00
1415;DHT22;702;49.466;11.086;2022-10-17T09:36:09;19.30;89.70
1415;DHT22;702;49.466;11.086;2022-10-17T09:38:41;19.30;90.00
1415;DHT22;702;49.466;11.086;2022-10-17T09:41:16;19.50;89.10
1415;DHT22;702;49.466;11.086;2022-10-17T09:43:45;19.60;89.20
1415;DHT22;702;49.466;11.086;2022-10-17T09:46:17;19.60;89.20
1415;DHT22;702;49.466;11.086;2022-10-17T09:48:51;19.70;89.20
1415;DHT22;702;49.466;11.086;2022-10-17T09:51:20;19.80;88.70
1415;DHT22;702;49.466;11.086;2022-10-17T09:53:52;20.00;89.00
1415;DHT22;702;49.466;11.086;2022-10-17T09:56:21;20.00;88.30
1415;DHT22;702;49.466;11.086;2022-10-17T09:58:51;20.10;87.40
1415;DHT22;702;49.466;11.086;2022-10-17T10:01:25;20.10;87.60
1415;DHT22;702;49.466;11.086;2022-10-17T10:04:10;20.30;87.60
1415;DHT22;702;49.466;11.086;2022-10-17T10:06:40;20.30;86.90
1415;DHT22;702;49.466;11.086;2022-10-17T10:09:20;20.30;86.80
1415;DHT22;702;49.466;11.086;2022-10-17T10:11:57;20.50;86.70
1415;DHT22;702;49.466;11.086;2022-10-17T10:14:28;20.70;86.20
1415;DHT22;702;49.466;11.086;2022-10-17T10:17:00;20.70;85.60
1415;DHT22;702;49.466;11.086;2022-10-17T10:19:30;20.70;84.70
1415;DHT22;702;49.466;11.086;2022-10-17T10:21:59;20.90;84.70
1415;DHT22;702;49.466;11.086;2022-10-17T10:24:28;20.90;84.80
1415;DHT22;702;49.466;11.086;2022-10-17T10:26:57;21.00;83.80
1415;DHT22;702;49.466;11.086;2022-10-17T10:29:29;21.00;83.80
1415;DHT22;702;49.466;11.086;2022-10-17T10:32:08;21.20;83.50
1415;DHT22;702;49.466;11.086;2022-10-17T10:34:42;21.20;83.00
1415;DHT22;702;49.466;11.086;2022-10-17T10:37:18;21.30;82.70
1415;DHT22;702;49.466;11.086;2022-10-17T10:39:48;21.30;83.00
1415;DHT22;702;49.466;11.086;2022-10-17T10:42:20;21.30;82.50
1415;DHT22;702;49.466;11.086;2022-10-17T10:44:52;21.30;82.10
1415;DHT22;702;49.466;11.086;2022-10-17T10:47:27;21.40;82.60
1415;DHT22;702;49.466;11.086;2022-10-17T10:50:21;21.60;82.30
1415;DHT22;702;49.466;11.086;2022-10-17T10:52:57;21.70;81.50
1415;DHT22;702;49.466;11.086;2022-10-17T10:55:36;21.60;81.20
1415;DHT22;702;49.466;11.086;2022-10-17T10:58:20;21.80;81.10
1415;DHT22;702;49.466;11.086;2022-10-17T11:00:53;21.90;80.70
1415;DHT22;702;49.466;11.086;2022-10-17T11:03:28;21.90;80.40
1415;DHT22;702;49.466;11.086;2022-10-17T11:06:01;21.90;80.30
1415;DHT22;702;49.466;11.086;2022-10-17T11:08:37;21.90;80.60
1415;DHT22;702;49.466;11.086;2022-10-17T11:11:12;22.00;80.60
1415;DHT22;702;49.466;11.086;2022-10-17T11:13:47;22.00;80.40
1415;DHT22;702;49.466;11.086;2022-10-17T11:16:26;22.10;80.70
1415;DHT22;702;49.466;11.086;2022-10-17T11:19:15;22.20;80.30
1415;DHT22;702;49.466;11.086;2022-10-17T11:21:46;22.40;80.00
1415;DHT22;702;49.466;11.086;2022-10-17T11:24:21;22.60;79.90
1415;DHT22;702;49.466;11.086;2022-10-17T11:26:54;22.80;79.30
1415;DHT22;702;49.466;11.086;2022-10-17T11:29:27;23.00;79.30
1415;DHT22;702;49.466;11.086;2022-10-17T11:31:57;23.30;79.00
1415;DHT22;702;49.466;11.086;2022-10-17T11:34:31;23.10;78.50
1415;DHT22;702;49.466;11.086;2022-10-17T11:37:04;23.10;78.20
1415;DHT22;702;49.466;11.086;2022-10-17T11:39:41;23.10;78.40
1415;DHT22;702;49.466;11.086;2022-10-17T11:42:16;23.20;78.60
1415;DHT22;702;49.466;11.086;2022-10-17T11:44:50;23.40;78.30
1415;DHT22;702;49.466;11.086;2022-10-17T11:47:30;23.40;78.30
1415;DHT22;702;49.466;11.086;2022-10-17T11:50:17;23.60;77.70
1415;DHT22;702;49.466;11.086;2022-10-17T11:52:51;23.50;77.00
1415;DHT22;702;49.466;11.086;2022-10-17T11:55:23;23.40;76.80
1415;DHT22;702;49.466;11.086;2022-10-17T11:57:59;23.30;76.90
1415;DHT22;702;49.466;11.086;2022-10-17T12:00:42;23.00;76.80
1415;DHT22;702;49.466;11.086;2022-10-17T12:03:28;23.00;77.10
1415;DHT22;702;49.466;11.086;2022-10-17T12:06:15;23.10;76.30
1415;DHT22;702;49.466;11.086;2022-10-17T12:08:51;23.30;76.60
1415;DHT22;702;49.466;11.086;2022-10-17T12:11:30;23.40;76.20
1415;DHT22;702;49.466;11.086;2022-10-17T12:14:02;23.30;76.60
1415;DHT22;702;49.466;11.086;2022-10-17T12:16:46;23.30;76.60
1415;DHT22;702;49.466;11.086;2022-10-17T12:19:29;23.30;76.20
1415;DHT22;702;49.466;11.086;2022-10-17T12:22:03;23.20;76.50
1415;DHT22;702;49.466;11.086;2022-10-17T12:24:40;23.30;76.80
1415;DHT22;702;49.466;11.086;2022-10-17T12:27:31;23.20;76.70
1415;DHT22;702;49.466;11.086;2022-10-17T12:30:13;23.20;76.50
1415;DHT22;702;49.466;11.086;2022-10-17T12:33:03;23.20;76.50
1415;DHT22;702;49.466;11.086;2022-10-17T12:35:34;23.20;76.90
1415;DHT22;702;49.466;11.086;2022-10-17T12:38:17;23.20;77.10
1415;DHT22;702;49.466;11.086;2022-10-17T12:40:48;23.20;76.70
1415;DHT22;702;49.466;11.086;2022-10-17T12:46:57;23.30;76.50
1415;DHT22;702;49.466;11.086;2022-10-17T12:49:38;23.40;76.60
1415;DHT22;702;49.466;11.086;2022-10-17T12:55:24;23.50;75.90
1415;DHT22;702;49.466;11.086;2022-10-17T12:57:55;23.50;76.00
1415;DHT22;702;49.466;11.086;2022-10-17T13:00:33;23.60;76.40
1415;DHT22;702;49.466;11.086;2022-10-17T13:03:11;23.50;76.00
1415;DHT22;702;49.466;11.086;2022-10-17T13:05:41;23.40;76.30
1415;DHT22;702;49.466;11.086;2022-10-17T13:08:15;23.40;76.00
1415;DHT22;702;49.466;11.086;2022-10-17T13:10:48;23.30;76.20
1415;DHT22;702;49.466;11.086;2022-10-17T13:13:19;23.40;76.40
1415;DHT22;702;49.466;11.086;2022-10-17T13:15:48;23.20;76.10
1415;DHT22;702;49.466;11.086;2022-10-17T13:18:19;23.20;76.80
1415;DHT22;702;49.466;11.086;2022-10-17T13:20:58;23.20;76.90
1415;DHT22;702;49.466;11.086;2022-10-17T13:23:31;23.20;77.00
1415;DHT22;702;49.466;11.086;2022-10-17T13:26:12;23.20;77.30
1415;DHT22;702;49.466;11.086;2022-10-17T13:28:41;23.20;77.20
1415;DHT22;702;49.466;11.086;2022-10-17T13:31:26;23.20;77.40
1415;DHT22;702;49.466;11.086;2022-10-17T13:33:57;23.10;77.00
1415;DHT22;702;49.466;11.086;2022-10-17T13:36:27;23.20;77.40
1415;DHT22;702;49.466;11.086;2022-10-17T13:38:56;23.30;76.70
1415;DHT22;702;49.466;11.086;2022-10-17T13:41:27;23.30;76.80
1415;DHT22;702;49.466;11.086;2022-10-17T13:43:56;23.30;76.90
1415;DHT22;702;49.466;11.086;2022-10-17T13:46:26;23.30;77.40
1415;DHT22;702;49.466;11.086;2022-10-17T13:48:57;23.40;77.30
1415;DHT22;702;49.466;11.086;2022-10-17T13:51:26;23.50;77.30
1415;DHT22;702;49.466;11.086;2022-10-17T13:53:53;23.30;77.00
1415;DHT22;702;49.466;11.086;2022-10-17T13:56:23;23.40;77.30
1415;DHT22;702;49.466;11.086;2022-10-17T13:58:54;23.40;77.30
1415;DHT22;702;49.466;11.086;2022-10-17T14:01:23;23.40;77.50
1415;DHT22;702;49.466;11.086;2022-10-17T14:03:53;23.50;77.90
1415;DHT22;702;49.466;11.086;2022-10-17T14:06:21;23.50;78.10
1415;DHT22;702;49.466;11.086;2022-10-17T14:08:57;23.50;78.00
1415;DHT22;702;49.466;11.086;2022-10-17T14:11:32;23.50;78.10
1415;DHT22;702;49.466;11.086;2022-10-17T14:14:03;23.50;78.20
1415;DHT22;702;49.466;11.086;2022-10-17T14:16:37;23.60;78.50
1415;DHT22;702;49.466;11.086;2022-10-17T14:19:22;23.60;77.30
1415;DHT22;702;49.466;11.086;2022-10-17T14:21:53;23.60;77.30
1415;DHT22;702;49.466;11.086;2022-10-17T14:24:28;23.50;77.40
1415;DHT22;702;49.466;11.086;2022-10-17T14:26:59;23.50;77.70
1415;DHT22;702;49.466;11.086;2022-10-17T14:29:28;23.50;77.80
1415;DHT22;702;49.466;11.086;2022-10-17T14:31:58;23.60;77.90
1415;DHT22;702;49.466;11.086;2022-10-17T14:34:31;23.60;77.60
1415;DHT22;702;49.466;11.086;2022-10-17T14:37:00;23.50;77.50
1415;DHT22;702;49.466;11.086;2022-10-17T14:39:28;23.50;77.40
1415;DHT22;702;49.466;11.086;2022-10-17T14:41:55;23.50;77.70
1415;DHT22;702;49.466;11.086;2022-10-17T14:44:30;23.50;77.40
1415;DHT22;702;49.466;11.086;2022-10-17T14:47:01;23.40;77.00
1415;DHT22;702;49.466;11.086;2022-10-17T14:49:35;23.40;76.30
1415;DHT22;702;49.466;11.086;2022-10-17T14:52:24;23.30;76.00
1415;DHT22;702;49.466;11.086;2022-10-17T14:54:53;23.30;75.70
1415;DHT22;702;49.466;11.086;2022-10-17T14:57:24;23.30;75.80
1415;DHT22;702;49.466;11.086;2022-10-17T15:00:08;23.20;75.40
1415;DHT22;702;49.466;11.086;2022-10-17T15:02:38;23.20;74.70
1415;DHT22;702;49.466;11.086;2022-10-17T15:05:06;23.20;74.50
1415;DHT22;702;49.466;11.086;2022-10-17T15:07:34;23.20;74.40
1415;DHT22;702;49.466;11.086;2022-10-17T15:10:01;23.10;74.90
1415;DHT22;702;49.466;11.086;2022-10-17T15:12:29;23.10;75.50
1415;DHT22;702;49.466;11.086;2022-10-17T15:14:57;23.00;75.00
1415;DHT22;702;49.466;11.086;2022-10-17T15:17:28;23.00;75.20
1415;DHT22;702;49.466;11.086;2022-10-17T15:19:56;23.00;75.40
1415;DHT22;702;49.466;11.086;2022-10-17T15:22:24;22.90;75.50
1415;DHT22;702;49.466;11.086;2022-10-17T15:24:51;22.90;75.30
1415;DHT22;702;49.466;11.086;2022-10-17T15:27:20;22.80;75.30
1415;DHT22;702;49.466;11.086;2022-10-17T15:29:48;22.80;75.40
1415;DHT22;702;49.466;11.086;2022-10-17T15:32:17;22.70;75.50
1415;DHT22;702;49.466;11.086;2022-10-17T15:34:46;22.70;76.10
1415;DHT22;702;49.466;11.086;2022-10-17T15:37:17;22.70;76.40
1415;DHT22;702;49.466;11.086;2022-10-17T15:39:48;22.50;76.50
1415;DHT22;702;49.466;11.086;2022-10-17T15:42:18;22.40;76.90
1415;DHT22;702;49.466;11.086;2022-10-17T15:44:45;22.40;77.20
1415;DHT22;702;49.466;11.086;2022-10-17T15:47:21;22.40;77.50
1415;DHT22;702;49.466;11.086;2022-10-17T15:49:52;22.30;77.80
1415;DHT22;702;49.466;11.086;2022-10-17T15:52:20;22.20;78.10
1415;DHT22;702;49.466;11.086;2022-10-17T15:54:47;22.10;78.60
1415;DHT22;702;49.466;11.086;2022-10-17T15:57:17;21.90;78.70
1415;DHT22;702;49.466;11.086;2022-10-17T15:59:45;21.90;79.20
1415;DHT22;702;49.466;11.086;2022-10-17T16:02:15;21.70;79.50
1415;DHT22;702;49.466;11.086;2022-10-17T16:04:43;21.50;80.10
1415;DHT22;702;49.466;11.086;2022-10-17T16:07:12;21.40;80.60
1415;DHT22;702;49.466;11.086;2022-10-17T16:09:39;21.30;81.00
1415;DHT22;702;49.466;11.086;2022-10-17T16:12:11;21.10;81.40
1415;DHT22;702;49.466;11.086;2022-10-17T16:14:41;20.90;82.30
1415;DHT22;702;49.466;11.086;2022-10-17T16:17:09;20.90;82.40
1415;DHT22;702;49.466;11.086;2022-10-17T16:19:39;20.70;82.70
1415;DHT22;702;49.466;11.086;2022-10-17T16:22:19;20.70;83.10
1415;DHT22;702;49.466;11.086;2022-10-17T16:24:47;20.50;83.30
1415;DHT22;702;49.466;11.086;2022-10-17T16:27:14;20.50;83.50
1415;DHT22;702;49.466;11.086;2022-10-17T16:29:42;20.40;83.70
1415;DHT22;702;49.466;11.086;2022-10-17T16:32:09;20.30;84.10
1415;DHT22;702;49.466;11.086;2022-10-17T16:34:37;20.20;84.50
1415;DHT22;702;49.466;11.086;2022-10-17T16:37:04;20.10;84.80
1415;DHT22;702;49.466;11.086;2022-10-17T16:39:32;20.00;85.10